createdAt,value
2023-03-01T00:00:47.630Z,100.00
2023-03-01T00:03:15.422Z,100.00
2023-03-01T00:05:46.558Z,100.00
2023-03-01T00:08:14.561Z,100.00
2023-03-01T00:10:42.231Z,100.00
2023-03-01T00:13:09.874Z,100.00
2023-03-01T00:15:42.466Z,100.00
2023-03-01T00:18:10.913Z,100.00
2023-03-01T00:20:39.047Z,100.00
2023-03-01T00:23:06.962Z,100.00
2023-03-01T00:25:34.622Z,100.00
2023-03-01T00:28:02.278Z,100.00
2023-03-01T00:30:29.973Z,100.00
2023-03-01T00:32:59.365Z,100.00
2023-03-01T00:35:27.094Z,100.00
2023-03-01T00:37:58.794Z,100.00
2023-03-01T00:40:26.517Z,100.00
2023-03-01T00:42:54.154Z,100.00
2023-03-01T00:45:22.077Z,100.00
2023-03-01T00:47:50.569Z,100.00
2023-03-01T00:50:20.662Z,100.00
2023-03-01T00:52:48.630Z,100.00
2023-03-01T00:55:16.717Z,100.00
2023-03-01T00:57:44.443Z,100.00
2023-03-01T01:00:13.353Z,100.00
2023-03-01T01:02:41.134Z,100.00
2023-03-01T01:05:09.642Z,100.00
2023-03-01T01:07:38.897Z,100.00
2023-03-01T01:10:07.543Z,100.00
2023-03-01T01:12:35.310Z,100.00
2023-03-01T01:15:03.177Z,100.00
2023-03-01T01:17:30.848Z,100.00
2023-03-01T01:19:58.560Z,100.00
2023-03-01T01:22:26.220Z,100.00
2023-03-01T01:24:55.317Z,100.00
2023-03-01T01:27:23.146Z,100.00
2023-03-01T01:29:50.851Z,100.00
2023-03-01T01:32:18.737Z,100.00
2023-03-01T01:34:47.616Z,100.00
2023-03-01T01:37:15.301Z,100.00
2023-03-01T01:39:43.108Z,100.00
2023-03-01T01:42:15.222Z,100.00
2023-03-01T01:44:42.852Z,100.00
2023-03-01T01:47:15.497Z,100.00
2023-03-01T01:49:45.408Z,100.00
2023-03-01T01:52:16.440Z,100.00
2023-03-01T01:54:46.949Z,100.00
2023-03-01T01:57:19.859Z,100.00
2023-03-01T01:59:50.464Z,100.00
2023-03-01T02:02:18.322Z,100.00
2023-03-01T02:04:46.073Z,100.00
2023-03-01T02:07:17.406Z,100.00
2023-03-01T02:09:47.772Z,100.00
2023-03-01T02:12:19.128Z,100.00
2023-03-01T02:14:46.848Z,100.00
2023-03-01T02:17:16.261Z,100.00
2023-03-01T02:19:51.567Z,100.00
2023-03-01T02:22:24.447Z,100.00
2023-03-01T02:25:01.433Z,100.00
2023-03-01T02:27:37.636Z,100.00
2023-03-01T02:30:08.880Z,100.00
2023-03-01T02:32:36.279Z,100.00
2023-03-01T02:35:07.508Z,100.00
2023-03-01T02:37:38.083Z,100.00
2023-03-01T02:40:12.547Z,100.00
2023-03-01T02:42:46.185Z,100.00
2023-03-01T02:45:15.456Z,100.00
2023-03-01T02:47:43.143Z,100.00
2023-03-01T02:50:24.797Z,100.00
2023-03-01T02:53:00.895Z,100.00
2023-03-01T02:55:28.914Z,100.00
2023-03-01T02:57:57.524Z,100.00
2023-03-01T03:00:29.517Z,100.00
2023-03-01T03:02:58.128Z,100.00
2023-03-01T03:05:27.745Z,100.00
2023-03-01T03:07:56.396Z,100.00
2023-03-01T03:10:25.972Z,100.00
2023-03-01T03:12:55.017Z,100.00
2023-03-01T03:15:23.213Z,100.00
2023-03-01T03:17:53.712Z,100.00
2023-03-01T03:20:23.555Z,100.00
2023-03-01T03:22:53.540Z,100.00
2023-03-01T03:25:21.847Z,100.00
2023-03-01T03:27:57.638Z,100.00
2023-03-01T03:30:27.714Z,100.00
2023-03-01T03:32:57.924Z,100.00
2023-03-01T03:35:29.815Z,100.00
2023-03-01T03:38:04.411Z,100.00
2023-03-01T03:40:34.307Z,100.00
2023-03-01T03:43:01.988Z,100.00
2023-03-01T03:45:29.708Z,100.00
2023-03-01T03:47:58.746Z,100.00
2023-03-01T03:50:26.525Z,100.00
2023-03-01T03:52:54.352Z,100.00
2023-03-01T03:55:22.203Z,100.00
2023-03-01T03:57:52.594Z,100.00
2023-03-01T04:00:22.800Z,100.00
2023-03-01T04:02:50.828Z,100.00
2023-03-01T04:05:20.954Z,100.00
2023-03-01T04:07:48.578Z,100.00
2023-03-01T04:10:18.571Z,100.00
2023-03-01T04:12:46.467Z,100.00
2023-03-01T04:15:14.790Z,100.00
2023-03-01T04:17:42.972Z,100.00
2023-03-01T04:20:12.490Z,100.00
2023-03-01T04:22:42.564Z,100.00
2023-03-01T04:25:14.983Z,100.00
2023-03-01T04:27:43.115Z,100.00
2023-03-01T04:30:13.045Z,100.00
2023-03-01T04:32:40.718Z,100.00
2023-03-01T04:35:09.268Z,100.00
2023-03-01T04:37:37.367Z,100.00
2023-03-01T04:40:16.959Z,100.00
2023-03-01T04:42:45.253Z,100.00
2023-03-01T04:45:15.138Z,100.00
2023-03-01T04:47:43.703Z,100.00
2023-03-01T04:50:13.427Z,100.00
2023-03-01T04:52:41.102Z,100.00
2023-03-01T04:55:11.389Z,100.00
2023-03-01T04:57:39.518Z,100.00
2023-03-01T05:00:20.939Z,100.00
2023-03-01T05:02:54.180Z,100.00
2023-03-01T05:05:29.797Z,100.00
2023-03-01T05:08:01.128Z,100.00
2023-03-01T05:10:34.484Z,100.00
2023-03-01T05:13:02.137Z,100.00
2023-03-01T05:15:31.118Z,100.00
2023-03-01T05:18:00.941Z,100.00
2023-03-01T05:20:29.707Z,100.00
2023-03-01T05:22:59.611Z,100.00
2023-03-01T05:25:27.945Z,100.00
2023-03-01T05:27:56.960Z,100.00
2023-03-01T05:30:24.648Z,100.00
2023-03-01T05:32:56.637Z,100.00
2023-03-01T05:35:25.044Z,100.00
2023-03-01T05:37:53.286Z,100.00
2023-03-01T05:40:22.584Z,100.00
2023-03-01T05:42:51.823Z,100.00
2023-03-01T05:45:20.904Z,100.00
2023-03-01T05:47:49.958Z,100.00
2023-03-01T05:50:20.644Z,100.00
2023-03-01T05:52:49.509Z,100.00
2023-03-01T05:55:17.889Z,100.00
2023-03-01T05:57:45.700Z,100.00
2023-03-01T06:00:15.298Z,100.00
2023-03-01T06:02:44.457Z,100.00
2023-03-01T06:05:14.067Z,100.00
2023-03-01T06:07:42.534Z,100.00
2023-03-01T06:10:12.857Z,100.00
2023-03-01T06:12:41.784Z,100.00
2023-03-01T06:15:11.374Z,100.00
2023-03-01T06:17:41.555Z,100.00
2023-03-01T06:20:13.206Z,100.00
2023-03-01T06:22:41.516Z,100.00
2023-03-01T06:25:10.455Z,100.00
2023-03-01T06:27:38.307Z,100.00
2023-03-01T06:30:08.042Z,100.00
2023-03-01T06:32:35.717Z,100.00
2023-03-01T06:35:03.383Z,100.00
2023-03-01T06:37:32.542Z,100.00
2023-03-01T06:40:00.219Z,100.00
2023-03-01T06:42:27.924Z,100.00
2023-03-01T06:44:55.551Z,100.00
2023-03-01T06:47:23.175Z,100.00
2023-03-01T06:49:50.866Z,100.00
2023-03-01T06:52:18.726Z,100.00
2023-03-01T06:54:47.751Z,100.00
2023-03-01T06:57:15.382Z,100.00
2023-03-01T06:59:43.092Z,100.00
2023-03-01T07:02:12.408Z,100.00
2023-03-01T07:04:40.090Z,100.00
2023-03-01T07:07:07.723Z,100.00
2023-03-01T07:09:35.397Z,100.00
2023-03-01T07:12:05.172Z,100.00
2023-03-01T07:14:32.908Z,100.00
2023-03-01T07:17:00.667Z,100.00
2023-03-01T07:19:28.364Z,100.00
2023-03-01T07:21:56.811Z,100.00
2023-03-01T07:24:24.688Z,100.00
2023-03-01T07:26:52.433Z,100.00
2023-03-01T07:29:22.096Z,100.00
2023-03-01T07:31:49.783Z,100.00
2023-03-01T07:34:17.453Z,100.00
2023-03-01T07:36:46.358Z,100.00
2023-03-01T07:39:14.064Z,100.00
2023-03-01T07:41:42.130Z,100.00
2023-03-01T07:44:10.277Z,100.00
2023-03-01T07:46:39.308Z,100.00
2023-03-01T07:49:07.174Z,100.00
2023-03-01T07:51:34.942Z,100.00
2023-03-01T07:54:02.562Z,100.00
2023-03-01T07:56:30.800Z,100.00
2023-03-01T07:58:58.563Z,100.00
2023-03-01T08:01:26.302Z,100.00
2023-03-01T08:03:55.565Z,100.00
2023-03-01T08:06:23.176Z,100.00
2023-03-01T08:08:50.936Z,100.00
2023-03-01T08:11:18.595Z,100.00
2023-03-01T08:13:46.257Z,100.00
2023-03-01T08:16:16.171Z,100.00
2023-03-01T08:18:45.675Z,100.00
2023-03-01T08:21:16.777Z,100.00
2023-03-01T08:23:45.184Z,100.00
2023-03-01T08:26:14.506Z,100.00
2023-03-01T08:28:42.742Z,100.00
2023-03-01T08:31:18.089Z,100.00
2023-03-01T08:33:45.818Z,100.00
2023-03-01T08:36:15.002Z,100.00
2023-03-01T08:38:42.662Z,100.00
2023-03-01T08:41:10.377Z,100.00
2023-03-01T08:43:38.043Z,100.00
2023-03-01T08:46:06.066Z,100.00
2023-03-01T08:48:33.772Z,100.00
2023-03-01T08:51:09.732Z,100.00
2023-03-01T08:53:39.031Z,100.00
2023-03-01T08:56:07.050Z,100.00
2023-03-01T08:58:35.091Z,100.00
2023-03-01T09:01:02.874Z,100.00
2023-03-01T09:03:31.079Z,100.00
2023-03-01T09:06:03.196Z,100.00
2023-03-01T09:08:31.093Z,100.00
2023-03-01T09:11:00.140Z,100.00
2023-03-01T09:13:32.100Z,100.00
2023-03-01T09:15:59.843Z,100.00
2023-03-01T09:18:27.599Z,100.00
2023-03-01T09:20:57.021Z,100.00
2023-03-01T09:23:24.670Z,100.00
2023-03-01T09:25:52.471Z,100.00
2023-03-01T09:28:29.630Z,100.00
2023-03-01T09:31:00.402Z,100.00
2023-03-01T09:33:28.420Z,100.00
2023-03-01T09:35:59.000Z,100.00
2023-03-01T09:38:27.088Z,100.00
2023-03-01T09:40:55.173Z,100.00
2023-03-01T09:43:28.579Z,100.00
2023-03-01T09:45:57.341Z,100.00
2023-03-01T09:48:28.293Z,100.00
2023-03-01T09:50:56.025Z,100.00
2023-03-01T09:53:27.099Z,100.00
2023-03-01T09:55:58.133Z,100.00
2023-03-01T09:58:36.207Z,100.00
2023-03-01T10:01:13.019Z,100.00
2023-03-01T10:03:44.592Z,98.15
2023-03-01T10:06:32.213Z,96.59
2023-03-01T10:09:04.771Z,97.13
2023-03-01T10:11:34.029Z,95.89
2023-03-01T10:14:05.510Z,90.63
2023-03-01T10:16:41.237Z,88.43
2023-03-01T10:19:13.965Z,87.85
2023-03-01T10:21:46.526Z,87.54
2023-03-01T10:24:15.911Z,86.80
2023-03-01T10:26:55.197Z,87.27
2023-03-01T10:29:26.799Z,91.62
2023-03-01T10:31:55.674Z,91.25
2023-03-01T10:34:29.985Z,89.80
2023-03-01T10:37:00.125Z,90.44
2023-03-01T10:39:28.210Z,88.12
2023-03-01T10:42:01.124Z,87.34
2023-03-01T10:44:42.947Z,86.53
2023-03-01T10:47:16.865Z,83.36
2023-03-01T10:49:55.621Z,79.96
2023-03-01T10:52:25.376Z,79.32
2023-03-01T10:54:55.330Z,84.14
2023-03-01T10:57:42.061Z,84.48
2023-03-01T11:00:23.408Z,84.76
2023-03-01T11:02:53.393Z,82.67
2023-03-01T11:05:25.460Z,84.21
2023-03-01T11:07:54.904Z,81.60
2023-03-01T11:10:24.993Z,83.24
2023-03-01T11:12:54.230Z,83.26
2023-03-01T11:15:27.059Z,81.25
2023-03-01T11:18:03.133Z,81.33
2023-03-01T11:20:38.193Z,79.75
2023-03-01T11:23:10.538Z,80.63
2023-03-01T11:25:41.118Z,75.00
2023-03-01T11:28:12.368Z,74.43
2023-03-01T11:30:49.043Z,76.88
2023-03-01T11:33:34.926Z,73.51
2023-03-01T11:36:05.566Z,72.56
2023-03-01T11:38:37.007Z,75.87
2023-03-01T11:41:08.959Z,77.27
2023-03-01T11:43:40.779Z,77.43
2023-03-01T11:46:35.925Z,74.42
2023-03-01T11:49:14.273Z,74.38
2023-03-01T11:51:50.259Z,72.94
2023-03-01T11:54:31.219Z,74.13
2023-03-01T11:57:02.746Z,71.51
2023-03-01T11:59:44.948Z,71.02
2023-03-01T12:02:28.108Z,73.35
2023-03-01T12:05:19.552Z,70.87
2023-03-01T12:07:51.572Z,70.79
2023-03-01T12:10:24.487Z,70.04
2023-03-01T12:13:12.575Z,69.50
2023-03-01T12:15:47.572Z,70.39
2023-03-01T12:18:34.009Z,73.04
2023-03-01T12:21:09.237Z,73.07
2023-03-01T12:24:09.793Z,71.21
2023-03-01T12:29:24.372Z,72.21
2023-03-01T12:32:12.182Z,67.77
2023-03-01T12:34:52.485Z,67.09
2023-03-01T12:37:38.474Z,66.32
2023-03-01T12:40:19.532Z,68.92
2023-03-01T12:42:58.478Z,67.76
2023-03-01T12:45:35.101Z,65.72
2023-03-01T12:48:13.940Z,68.10
2023-03-01T12:50:45.193Z,67.08
2023-03-01T12:53:23.885Z,63.42
2023-03-01T12:55:53.136Z,64.52
2023-03-01T12:58:29.882Z,64.02
2023-03-01T13:01:18.414Z,61.19
2023-03-01T13:04:01.969Z,62.33
2023-03-01T13:06:43.260Z,63.91
2023-03-01T13:09:17.616Z,62.76
2023-03-01T13:11:45.634Z,60.51
2023-03-01T13:14:38.720Z,61.12
2023-03-01T13:17:06.573Z,59.46
2023-03-01T13:19:36.850Z,59.91
2023-03-01T13:22:29.000Z,60.65
2023-03-01T13:25:04.659Z,59.76
2023-03-01T13:27:33.480Z,56.95
2023-03-01T13:30:06.532Z,60.06
2023-03-01T13:32:44.148Z,57.70
2023-03-01T13:35:42.536Z,56.43
2023-03-01T13:38:46.805Z,57.12
2023-03-01T13:41:15.898Z,59.17
2023-03-01T13:43:45.189Z,56.65
2023-03-01T13:46:19.120Z,55.87
2023-03-01T13:48:51.315Z,52.62
2023-03-01T13:51:23.962Z,52.62
2023-03-01T13:53:54.071Z,52.19
2023-03-01T13:56:24.272Z,53.78
2023-03-01T13:58:54.920Z,53.39
2023-03-01T14:01:26.470Z,51.49
2023-03-01T14:03:55.070Z,50.05
2023-03-01T14:06:24.524Z,49.45
2023-03-01T14:09:05.176Z,50.97
2023-03-01T14:12:00.719Z,51.76
2023-03-01T14:14:36.942Z,50.04
2023-03-01T14:17:16.701Z,52.37
2023-03-01T14:19:45.909Z,50.84
2023-03-01T14:22:20.348Z,52.07
2023-03-01T14:24:51.846Z,46.97
2023-03-01T14:27:20.371Z,45.87
2023-03-01T14:29:56.835Z,45.95
2023-03-01T14:32:27.737Z,48.17
2023-03-01T14:34:55.774Z,46.52
2023-03-01T14:37:25.243Z,46.72
2023-03-01T14:39:55.322Z,47.80
2023-03-01T14:42:24.242Z,46.91
2023-03-01T14:44:53.448Z,44.02
2023-03-01T14:47:28.214Z,44.32
2023-03-01T14:49:59.823Z,43.07
2023-03-01T14:52:35.795Z,44.38
2023-03-01T14:55:06.759Z,44.51
2023-03-01T14:57:34.437Z,44.15
2023-03-01T15:00:05.782Z,43.99
2023-03-01T15:02:34.381Z,43.89
2023-03-01T15:05:07.177Z,43.56
2023-03-01T15:07:41.168Z,45.90
2023-03-01T15:10:20.441Z,46.16
2023-03-01T15:12:48.242Z,44.18
2023-03-01T15:15:29.469Z,45.86
2023-03-01T15:17:58.459Z,43.81
2023-03-01T15:20:30.262Z,42.38
2023-03-01T15:22:58.708Z,45.03
2023-03-01T15:25:29.426Z,43.92
2023-03-01T15:27:59.229Z,44.70
2023-03-01T15:30:28.497Z,48.42
2023-03-01T15:33:20.433Z,45.80
2023-03-01T15:35:50.478Z,46.69
2023-03-01T15:38:31.382Z,46.30
2023-03-01T15:41:01.783Z,46.79
2023-03-01T15:43:41.417Z,48.42
2023-03-01T15:46:20.258Z,48.39
2023-03-01T15:48:50.367Z,49.92
2023-03-01T15:51:18.326Z,53.63
2023-03-01T15:53:54.501Z,53.59
2023-03-01T15:56:24.197Z,54.83
2023-03-01T15:58:51.849Z,56.33
2023-03-01T16:01:19.758Z,58.94
2023-03-01T16:03:47.745Z,58.28
2023-03-01T16:06:15.757Z,60.37
2023-03-01T16:08:43.844Z,58.68
2023-03-01T16:11:16.776Z,58.39
2023-03-01T16:13:46.291Z,60.56
2023-03-01T16:16:17.295Z,59.03
2023-03-01T16:18:47.052Z,62.20
2023-03-01T16:21:17.704Z,65.15
2023-03-01T16:23:46.523Z,63.42
2023-03-01T16:26:14.677Z,63.00
2023-03-01T16:28:42.597Z,64.59
2023-03-01T16:31:12.480Z,67.01
2023-03-01T16:33:40.497Z,69.12
2023-03-01T16:36:09.999Z,69.63
2023-03-01T16:38:37.974Z,68.68
2023-03-01T16:41:05.856Z,68.43
2023-03-01T16:43:34.041Z,70.20
2023-03-01T16:46:01.697Z,74.58
2023-03-01T16:48:30.803Z,74.42
2023-03-01T16:51:01.385Z,77.13
2023-03-01T16:53:30.164Z,77.74
2023-03-01T16:55:58.383Z,76.09
2023-03-01T16:58:26.720Z,79.62
2023-03-01T17:00:55.564Z,80.09
2023-03-01T17:03:23.348Z,82.32
2023-03-01T17:05:52.970Z,82.48
2023-03-01T17:08:20.609Z,84.67
2023-03-01T17:10:48.917Z,88.86
2023-03-01T17:13:16.972Z,88.65
2023-03-01T17:15:44.712Z,90.08
2023-03-01T17:18:12.360Z,91.04
2023-03-01T17:20:40.255Z,91.56
2023-03-01T17:23:09.432Z,91.32
2023-03-01T17:25:37.435Z,89.97
2023-03-01T17:28:05.248Z,89.05
2023-03-01T17:30:33.010Z,90.11
2023-03-01T17:33:00.761Z,89.14
2023-03-01T17:35:28.480Z,89.35
2023-03-01T17:37:56.133Z,89.05
2023-03-01T17:40:25.134Z,93.50
2023-03-01T17:42:52.784Z,95.68
2023-03-01T17:45:20.526Z,96.14
2023-03-01T17:47:48.189Z,95.82
2023-03-01T17:50:15.905Z,96.50
2023-03-01T17:52:43.545Z,98.05
2023-03-01T17:55:11.770Z,98.86
2023-03-01T17:57:41.843Z,98.49
2023-03-01T18:00:12.065Z,100.00
2023-03-01T18:02:39.777Z,99.68
2023-03-01T18:05:08.806Z,100.00
2023-03-01T18:07:36.952Z,100.00
2023-03-01T18:10:05.456Z,99.43
2023-03-01T18:12:33.511Z,99.94
2023-03-01T18:15:02.534Z,100.00
2023-03-01T18:17:30.206Z,100.00
2023-03-01T18:19:58.899Z,100.00
2023-03-01T18:22:26.857Z,100.00
2023-03-01T18:24:54.528Z,100.00
2023-03-01T18:27:22.162Z,100.00
2023-03-01T18:29:49.886Z,100.00
2023-03-01T18:32:19.001Z,100.00
2023-03-01T18:34:46.848Z,100.00
2023-03-01T18:37:14.457Z,100.00
2023-03-01T18:39:42.252Z,100.00
2023-03-01T18:42:09.983Z,100.00
2023-03-01T18:44:38.451Z,100.00
2023-03-01T18:47:06.218Z,100.00
2023-03-01T18:49:35.264Z,100.00
2023-03-01T18:52:02.916Z,100.00
2023-03-01T18:54:30.627Z,100.00
2023-03-01T18:56:58.258Z,100.00
2023-03-01T18:59:25.918Z,100.00
2023-03-01T19:01:53.722Z,100.00
2023-03-01T19:04:21.385Z,100.00
2023-03-01T19:06:50.420Z,100.00
2023-03-01T19:09:19.506Z,100.00
2023-03-01T19:11:47.246Z,100.00
2023-03-01T19:14:14.972Z,100.00
2023-03-01T19:16:42.835Z,100.00
2023-03-01T19:19:11.361Z,100.00
2023-03-01T19:21:39.433Z,100.00
2023-03-01T19:24:08.754Z,100.00
2023-03-01T19:26:36.623Z,100.00
2023-03-01T19:29:04.979Z,100.00
2023-03-01T19:31:33.291Z,100.00
2023-03-01T19:34:11.809Z,100.00
2023-03-01T19:36:41.871Z,100.00
2023-03-01T19:39:13.447Z,100.00
2023-03-01T19:41:41.419Z,100.00
2023-03-01T19:44:09.312Z,100.00
2023-03-01T19:46:37.138Z,100.00
2023-03-01T19:49:05.533Z,100.00
2023-03-01T19:51:36.379Z,100.00
2023-03-01T19:54:04.483Z,100.00
2023-03-01T19:56:34.851Z,100.00
2023-03-01T19:59:04.470Z,100.00
2023-03-01T20:01:34.224Z,100.00
2023-03-01T20:04:02.595Z,100.00
2023-03-01T20:06:30.931Z,100.00
2023-03-01T20:09:02.358Z,100.00
2023-03-01T20:11:35.617Z,100.00
2023-03-01T20:14:06.659Z,100.00
2023-03-01T20:16:34.688Z,100.00
2023-03-01T20:19:02.724Z,100.00
2023-03-01T20:21:30.370Z,100.00
2023-03-01T20:23:58.188Z,100.00
2023-03-01T20:26:26.636Z,100.00
2023-03-01T20:28:58.017Z,100.00
2023-03-01T20:31:29.517Z,100.00
2023-03-01T20:33:58.590Z,100.00
2023-03-01T20:36:26.594Z,100.00
2023-03-01T20:38:54.850Z,100.00
2023-03-01T20:41:25.895Z,100.00
2023-03-01T20:43:56.888Z,100.00
2023-03-01T20:46:26.672Z,100.00
2023-03-01T20:48:54.814Z,100.00
2023-03-01T20:51:22.616Z,100.00
2023-03-01T20:53:50.459Z,100.00
2023-03-01T20:56:19.001Z,100.00
2023-03-01T20:58:47.203Z,100.00
2023-03-01T21:01:18.719Z,100.00
2023-03-01T21:03:46.520Z,100.00
2023-03-01T21:06:14.632Z,100.00
2023-03-01T21:08:42.314Z,100.00
2023-03-01T21:11:10.352Z,100.00
2023-03-01T21:13:38.080Z,100.00
2023-03-01T21:16:07.888Z,100.00
2023-03-01T21:18:37.858Z,100.00
2023-03-01T21:21:07.538Z,100.00
2023-03-01T21:23:36.520Z,100.00
2023-03-01T21:26:05.842Z,100.00
2023-03-01T21:28:34.733Z,100.00
2023-03-01T21:31:07.151Z,100.00
2023-03-01T21:33:35.181Z,100.00
2023-03-01T21:36:06.264Z,100.00
2023-03-01T21:38:36.421Z,100.00
2023-03-01T21:41:06.303Z,100.00
2023-03-01T21:43:34.101Z,100.00
2023-03-01T21:46:03.649Z,100.00
2023-03-01T21:48:32.069Z,100.00
2023-03-01T21:51:01.201Z,100.00
2023-03-01T21:53:33.276Z,100.00
2023-03-01T21:56:01.985Z,100.00
2023-03-01T21:58:31.506Z,100.00
2023-03-01T22:01:00.275Z,100.00
2023-03-01T22:03:28.001Z,100.00
2023-03-01T22:05:56.381Z,100.00
2023-03-01T22:08:24.108Z,100.00
2023-03-01T22:10:53.272Z,100.00
2023-03-01T22:13:21.674Z,100.00
2023-03-01T22:15:49.459Z,100.00
2023-03-01T22:18:17.857Z,100.00
2023-03-01T22:20:45.546Z,100.00
2023-03-01T22:23:13.234Z,100.00
2023-03-01T22:25:44.018Z,100.00
2023-03-01T22:28:13.209Z,100.00
2023-03-01T22:30:40.923Z,100.00
2023-03-01T22:33:08.583Z,100.00
2023-03-01T22:35:36.383Z,100.00
2023-03-01T22:38:04.127Z,100.00
2023-03-01T22:40:31.840Z,100.00
2023-03-01T22:42:59.632Z,100.00
2023-03-01T22:45:32.405Z,100.00
2023-03-01T22:48:00.872Z,100.00
2023-03-01T22:50:30.460Z,100.00
2023-03-01T22:52:58.164Z,100.00
2023-03-01T22:55:25.881Z,100.00
2023-03-01T22:57:53.504Z,100.00
2023-03-01T23:00:21.677Z,100.00
2023-03-01T23:02:50.853Z,100.00
2023-03-01T23:05:18.757Z,100.00
2023-03-01T23:07:50.130Z,100.00
2023-03-01T23:10:17.846Z,100.00
2023-03-01T23:12:45.775Z,100.00
2023-03-01T23:15:13.736Z,100.00
2023-03-01T23:17:41.609Z,100.00
2023-03-01T23:20:14.649Z,100.00
2023-03-01T23:22:42.681Z,100.00
2023-03-01T23:25:13.241Z,100.00
2023-03-01T23:27:40.916Z,100.00
2023-03-01T23:30:10.306Z,100.00
2023-03-01T23:32:40.531Z,100.00
2023-03-01T23:35:10.845Z,100.00
2023-03-01T23:37:39.140Z,100.00
2023-03-01T23:40:08.134Z,100.00
2023-03-01T23:42:35.800Z,100.00
2023-03-01T23:45:03.536Z,100.00
2023-03-01T23:47:31.187Z,100.00
2023-03-01T23:49:59.176Z,100.00
2023-03-01T23:52:28.187Z,100.00
2023-03-01T23:54:56.285Z,100.00
2023-03-01T23:57:24.054Z,100.00
2023-03-01T23:59:51.854Z,100.00
